Time;durP1;ratioP1;P1;durP2;ratioP2;P2;SDS_P1;SDS_P2;PMS_P1;PMS_P2;Temp;Humidity;BMP_temperature;BMP_pressure;BME280_temperature;BME280_humidity;BME280_pressure;Samples;Min_cycle;Max_cycle;Signal;HPM_P1;HPM_P2
2021/12/02 00:01:07;;;;;;;0.57;0.40;;;5.90;99.90;;;;;;6171171;23;20406;-92
2021/12/02 00:03:34;;;;;;;0.60;0.60;;;5.80;99.90;;;;;;6170340;23;20394;-92
2021/12/02 00:06:00;;;;;;;0.63;0.40;;;5.80;99.90;;;;;;6171329;23;20174;-93
2021/12/02 00:08:26;;;;;;;0.40;0.40;;;5.80;99.90;;;;;;6166022;23;20391;-92
2021/12/02 00:10:52;;;;;;;0.30;0.20;;;5.80;99.90;;;;;;6170532;23;20709;-91
2021/12/02 00:13:24;;;;;;;0.20;0.20;;;5.80;99.90;;;;;;6170004;23;20261;-92
2021/12/02 00:21:05;;;;;;;0.20;0.20;;;5.70;99.90;;;;;;6197199;23;20472;-92
2021/12/02 00:23:34;;;;;;;0.40;0.40;;;5.70;99.90;;;;;;6168020;23;20453;-93
2021/12/02 00:26:09;;;;;;;0.50;0.30;;;5.70;99.90;;;;;;6167991;23;20794;-92
2021/12/02 00:28:37;;;;;;;1.00;0.90;;;5.60;99.90;;;;;;6168829;23;20391;-92
2021/12/02 00:31:03;;;;;;;0.37;0.37;;;5.60;99.90;;;;;;6168107;23;20399;-91
2021/12/02 00:33:31;;;;;;;0.27;0.20;;;5.60;99.90;;;;;;6165581;23;20485;-91
2021/12/02 00:35:57;;;;;;;0.60;0.40;;;5.60;99.90;;;;;;6166503;23;20654;-92
2021/12/02 00:38:26;;;;;;;1.60;0.37;;;5.60;99.90;;;;;;6168133;23;20521;-92
2021/12/02 00:40:52;;;;;;;0.50;0.30;;;5.60;99.90;;;;;;6168067;23;20683;-93
2021/12/02 00:43:19;;;;;;;0.40;0.40;;;5.50;99.90;;;;;;6166120;23;20959;-92
2021/12/02 00:45:46;;;;;;;0.83;0.30;;;5.50;99.90;;;;;;6166140;23;20429;-91
2021/12/02 00:48:13;;;;;;;2.10;0.80;;;5.50;99.90;;;;;;6167008;23;20424;-92
2021/12/02 00:50:44;;;;;;;1.00;0.70;;;5.50;99.90;;;;;;6166317;23;20735;-92
2021/12/02 00:53:10;;;;;;;0.60;0.40;;;5.50;99.90;;;;;;6167480;23;20918;-91
2021/12/02 00:55:38;;;;;;;0.70;0.40;;;5.40;99.90;;;;;;6167911;23;20448;-93
2021/12/02 00:58:05;;;;;;;0.40;0.40;;;5.50;99.90;;;;;;6170434;23;20485;-93
2021/12/02 01:00:31;;;;;;;0.30;0.30;;;5.40;99.90;;;;;;6172066;23;20536;-91
2021/12/02 01:03:01;;;;;;;0.63;0.40;;;5.40;99.90;;;;;;6170528;23;20740;-91
2021/12/02 01:05:38;;;;;;;0.43;0.40;;;5.40;99.90;;;;;;6171028;23;20398;-91
2021/12/02 01:08:14;;;;;;;0.40;0.40;;;5.30;99.90;;;;;;6189790;23;20431;-92
2021/12/02 01:10:41;;;;;;;1.90;0.43;;;5.30;99.90;;;;;;6166784;23;20400;-91
2021/12/02 01:13:07;;;;;;;0.60;0.43;;;5.30;99.90;;;;;;6166176;23;20406;-91
2021/12/02 01:15:32;;;;;;;0.30;0.30;;;5.20;99.90;;;;;;6166068;23;20454;-91
2021/12/02 01:17:58;;;;;;;0.30;0.30;;;5.20;99.90;;;;;;6167354;23;20171;-91
2021/12/02 01:20:24;;;;;;;1.00;0.40;;;5.10;99.90;;;;;;6166327;23;20174;-91
2021/12/02 01:22:50;;;;;;;0.60;0.30;;;5.00;99.90;;;;;;6165031;23;20586;-91
2021/12/02 01:25:19;;;;;;;0.40;0.30;;;4.90;99.90;;;;;;6167204;23;20167;-91
2021/12/02 01:30:37;;;;;;;0.50;0.40;;;4.80;99.90;;;;;;6193665;23;20376;-90
2021/12/02 01:33:08;;;;;;;0.70;0.50;;;4.80;99.90;;;;;;6167320;23;20491;-91
2021/12/02 01:35:36;;;;;;;0.43;0.33;;;4.70;99.90;;;;;;6193063;23;20446;-91
2021/12/02 01:38:02;;;;;;;1.80;0.40;;;4.70;99.90;;;;;;6166225;23;20516;-91
2021/12/02 01:40:28;;;;;;;0.30;0.30;;;4.70;99.90;;;;;;6164169;23;20916;-91
2021/12/02 01:42:58;;;;;;;0.30;0.30;;;4.60;99.90;;;;;;6165272;23;20271;-91
2021/12/02 01:45:26;;;;;;;0.50;0.40;;;4.70;99.90;;;;;;6166343;23;20197;-91
2021/12/02 01:47:54;;;;;;;0.57;0.30;;;4.60;99.90;;;;;;6167221;23;20439;-90
2021/12/02 01:50:22;;;;;;;0.40;0.40;;;4.60;99.90;;;;;;6165483;23;20395;-91
2021/12/02 01:52:59;;;;;;;0.50;0.37;;;4.60;99.90;;;;;;6167946;23;20409;-91
2021/12/02 01:55:43;;;;;;;0.40;0.30;;;4.60;99.90;;;;;;6193610;23;20438;-91
2021/12/02 01:58:15;;;;;;;0.27;0.27;;;4.60;99.90;;;;;;6164924;23;20403;-93
2021/12/02 02:00:44;;;;;;;1.07;0.57;;;4.70;99.90;;;;;;6167835;23;20967;-92
2021/12/02 02:03:15;;;;;;;3.70;0.80;;;4.80;99.90;;;;;;6166830;23;20405;-91
2021/12/02 02:05:42;;;;;;;2.20;1.50;;;4.80;99.90;;;;;;6165873;23;20401;-92
2021/12/02 02:08:18;;;;;;;4.53;2.60;;;4.80;99.90;;;;;;6166610;23;20415;-92
2021/12/02 02:10:45;;;;;;;7.13;2.73;;;4.90;99.90;;;;;;6164865;23;20409;-92
2021/12/02 02:13:12;;;;;;;5.63;2.50;;;4.90;99.90;;;;;;6165638;23;20401;-91
2021/12/02 02:15:41;;;;;;;2.77;1.97;;;4.90;99.90;;;;;;6166661;23;20533;-91
2021/12/02 02:18:24;;;;;;;1.03;0.80;;;4.90;99.90;;;;;;6166269;23;20491;-93
2021/12/02 02:23:34;;;;;;;0.80;0.40;;;5.00;99.90;;;;;;6193748;23;20501;-92
2021/12/02 02:26:01;;;;;;;0.53;0.47;;;4.90;99.90;;;;;;6167524;23;20475;-92
2021/12/02 02:28:28;;;;;;;4.00;0.60;;;4.90;99.90;;;;;;6166119;23;20425;-92
2021/12/02 02:30:56;;;;;;;0.40;0.33;;;4.90;99.90;;;;;;6167774;23;20398;-92
2021/12/02 02:33:23;;;;;;;0.80;0.80;;;4.90;99.90;;;;;;6167543;23;20402;-91
2021/12/02 02:35:49;;;;;;;0.43;0.40;;;4.90;99.90;;;;;;6169995;23;20991;-91
2021/12/02 02:38:17;;;;;;;1.60;0.50;;;4.90;99.90;;;;;;6166907;23;21298;-92
2021/12/02 02:40:46;;;;;;;0.77;0.33;;;4.80;99.90;;;;;;6168544;23;20767;-92
2021/12/02 02:43:22;;;;;;;0.37;0.37;;;4.90;99.90;;;;;;6169469;23;20167;-92
2021/12/02 02:45:49;;;;;;;1.07;0.60;;;4.80;99.90;;;;;;6191406;23;20408;-92
2021/12/02 02:48:15;;;;;;;0.30;0.30;;;4.80;99.90;;;;;;6169083;23;20407;-92
2021/12/02 02:50:41;;;;;;;0.77;0.70;;;4.80;99.90;;;;;;6169331;23;20408;-92
2021/12/02 02:53:22;;;;;;;0.30;0.30;;;4.80;99.90;;;;;;6168846;23;20403;-91
2021/12/02 02:58:34;;;;;;;1.23;0.37;;;4.80;99.90;;;;;;6196351;23;20439;-92
2021/12/02 03:01:21;;;;;;;0.40;0.40;;;4.70;99.90;;;;;;6167797;23;20884;-91
2021/12/02 03:09:01;;;;;;;0.40;0.40;;;4.50;99.90;;;;;;6190098;23;20408;-91
2021/12/02 03:11:36;;;;;;;0.30;0.30;;;4.40;99.90;;;;;;6167107;23;21016;-91
2021/12/02 03:14:10;;;;;;;0.30;0.30;;;4.40;99.90;;;;;;6167944;23;20447;-91
2021/12/02 03:16:48;;;;;;;0.30;0.20;;;4.40;99.90;;;;;;6194829;23;20396;-90
2021/12/02 03:19:25;;;;;;;0.30;0.30;;;4.40;99.90;;;;;;6166563;23;20383;-90
2021/12/02 03:21:51;;;;;;;0.93;0.30;;;4.40;99.90;;;;;;6167788;23;20609;-91
2021/12/02 03:24:17;;;;;;;0.40;0.30;;;4.30;99.90;;;;;;6166885;23;20664;-90
2021/12/02 03:26:42;;;;;;;0.77;0.30;;;4.30;99.90;;;;;;6165856;23;20440;-91
2021/12/02 03:29:08;;;;;;;1.13;0.43;;;4.20;99.90;;;;;;6167234;23;20391;-90
2021/12/02 03:31:34;;;;;;;0.50;0.40;;;4.20;99.90;;;;;;6168008;23;20195;-91
2021/12/02 03:34:00;;;;;;;0.77;0.37;;;4.10;99.90;;;;;;6167058;23;20197;-91
2021/12/02 03:36:27;;;;;;;0.93;0.60;;;4.10;99.90;;;;;;6165223;23;20806;-91
2021/12/02 03:38:53;;;;;;;0.40;0.30;;;4.10;99.90;;;;;;6167910;23;20380;-91
2021/12/02 03:41:33;;;;;;;0.40;0.40;;;4.10;99.90;;;;;;6167741;23;20726;-91
2021/12/02 03:43:59;;;;;;;0.60;0.50;;;4.10;99.90;;;;;;6168854;23;20257;-92
2021/12/02 03:46:25;;;;;;;0.70;0.50;;;4.10;99.90;;;;;;6167920;23;20484;-91
2021/12/02 03:48:52;;;;;;;2.63;0.50;;;4.10;99.90;;;;;;6168501;23;20680;-92
2021/12/02 03:51:19;;;;;;;0.30;0.30;;;4.10;99.90;;;;;;6169827;23;20403;-90
2021/12/02 03:53:46;;;;;;;0.37;0.37;;;4.00;99.90;;;;;;6167548;23;20403;-91
2021/12/02 03:56:12;;;;;;;0.40;0.33;;;4.00;99.90;;;;;;6168837;23;20506;-92
2021/12/02 03:58:40;;;;;;;0.60;0.60;;;4.00;99.90;;;;;;6170788;23;20738;-92
2021/12/02 04:01:07;;;;;;;0.50;0.40;;;4.10;99.90;;;;;;6168713;23;20398;-90
2021/12/02 04:03:37;;;;;;;0.50;0.50;;;4.00;99.90;;;;;;6168116;23;20409;-91
2021/12/02 04:06:04;;;;;;;0.50;0.50;;;4.10;99.90;;;;;;6169765;23;20406;-91
2021/12/02 04:08:37;;;;;;;0.50;0.50;;;4.10;99.90;;;;;;6169687;23;20402;-90
2021/12/02 04:11:24;;;;;;;0.90;0.63;;;4.10;99.90;;;;;;6167428;23;20741;-90
2021/12/02 04:16:29;;;;;;;0.47;0.47;;;4.10;99.90;;;;;;6192277;23;20430;-92
2021/12/02 04:18:55;;;;;;;0.53;0.40;;;4.10;99.90;;;;;;6168470;23;20396;-91
2021/12/02 04:21:21;;;;;;;0.67;0.43;;;4.10;99.90;;;;;;6168611;23;20428;-91
2021/12/02 04:23:47;;;;;;;1.53;0.80;;;4.10;99.90;;;;;;6168100;23;20479;-90
2021/12/02 04:26:13;;;;;;;2.00;0.43;;;4.20;99.90;;;;;;6167773;23;20676;-90
2021/12/02 04:28:39;;;;;;;0.63;0.63;;;4.20;99.90;;;;;;6165882;23;20761;-90
2021/12/02 04:31:05;;;;;;;0.50;0.47;;;4.30;99.90;;;;;;6166515;23;20160;-91
2021/12/02 04:33:32;;;;;;;1.90;0.53;;;4.30;99.90;;;;;;6167132;23;20191;-91
2021/12/02 04:36:00;;;;;;;0.93;0.47;;;4.40;99.90;;;;;;6167986;23;20904;-90
2021/12/02 04:41:00;;;;;;;1.13;0.90;;;4.40;99.90;;;;;;6195607;23;20395;-91
2021/12/02 04:43:26;;;;;;;1.00;1.00;;;4.40;99.90;;;;;;6167929;23;20427;-91
2021/12/02 04:45:53;;;;;;;0.80;0.73;;;4.40;99.90;;;;;;6166512;23;20396;-92
2021/12/02 04:48:19;;;;;;;1.00;1.00;;;4.50;99.90;;;;;;6168526;23;21272;-91
2021/12/02 04:50:45;;;;;;;1.00;0.87;;;4.40;99.90;;;;;;6167138;23;20474;-91
2021/12/02 04:53:12;;;;;;;0.53;0.53;;;4.40;99.90;;;;;;6167583;23;20412;-91
2021/12/02 04:55:38;;;;;;;0.40;0.40;;;4.30;99.90;;;;;;6166508;23;20535;-91
2021/12/02 04:58:05;;;;;;;0.60;0.60;;;4.30;99.90;;;;;;6171713;23;20465;-91
2021/12/02 05:00:31;;;;;;;0.77;0.47;;;4.30;99.90;;;;;;6145307;23;20889;-92
2021/12/02 05:02:57;;;;;;;0.90;0.87;;;4.30;99.90;;;;;;6167600;23;20406;-91
2021/12/02 05:05:23;;;;;;;0.70;0.70;;;4.30;99.90;;;;;;6167556;23;20398;-89
2021/12/02 05:07:52;;;;;;;1.63;0.50;;;4.30;99.90;;;;;;6168511;23;20407;-90
2021/12/02 05:10:19;;;;;;;1.37;0.60;;;4.20;99.90;;;;;;6166498;23;20435;-89
2021/12/02 05:12:49;;;;;;;0.80;0.70;;;4.30;99.90;;;;;;6194702;23;20515;-90
2021/12/02 05:15:15;;;;;;;0.87;0.80;;;4.30;99.90;;;;;;6166762;23;20547;-89
2021/12/02 05:17:40;;;;;;;0.60;0.60;;;4.30;99.90;;;;;;6167274;23;20922;-89
2021/12/02 05:20:07;;;;;;;0.60;0.60;;;4.30;99.90;;;;;;6166730;23;20165;-90
2021/12/02 05:22:33;;;;;;;0.70;0.70;;;4.30;99.90;;;;;;6165985;23;20179;-91
2021/12/02 05:24:59;;;;;;;1.03;1.03;;;4.30;99.90;;;;;;6193400;23;20403;-90
2021/12/02 05:27:25;;;;;;;2.77;0.90;;;4.30;99.90;;;;;;6168084;23;20411;-92
2021/12/02 05:29:51;;;;;;;1.33;1.23;;;4.30;99.90;;;;;;6168908;23;20160;-91
2021/12/02 05:32:16;;;;;;;2.00;0.80;;;4.30;99.90;;;;;;6168185;23;20408;-91
2021/12/02 05:34:47;;;;;;;1.20;1.10;;;4.30;99.90;;;;;;6167883;23;20209;-93
2021/12/02 05:37:26;;;;;;;1.63;1.00;;;4.30;99.90;;;;;;6166660;23;20484;-92
2021/12/02 05:39:54;;;;;;;0.70;0.70;;;4.30;99.90;;;;;;6168243;23;20411;-92
2021/12/02 05:42:48;;;;;;;1.37;0.70;;;4.30;99.90;;;;;;6197303;23;20475;-92
2021/12/02 05:45:14;;;;;;;0.83;0.83;;;4.20;99.90;;;;;;6169400;23;20415;-91
2021/12/02 05:47:40;;;;;;;1.43;0.90;;;4.30;99.90;;;;;;6167513;23;20389;-91
2021/12/02 05:50:06;;;;;;;0.70;0.67;;;4.30;99.90;;;;;;6168028;23;20174;-91
2021/12/02 05:52:32;;;;;;;2.10;0.80;;;4.20;99.90;;;;;;6166869;23;20246;-92
2021/12/02 05:55:05;;;;;;;1.13;0.90;;;4.20;99.90;;;;;;6168117;23;20525;-90
2021/12/02 05:57:31;;;;;;;0.93;0.93;;;4.30;99.90;;;;;;6168470;23;20177;-90
2021/12/02 05:59:58;;;;;;;1.17;0.60;;;4.30;99.90;;;;;;6167446;23;20392;-90
2021/12/02 06:02:23;;;;;;;0.70;0.70;;;4.40;99.90;;;;;;6166720;23;20738;-89
2021/12/02 06:04:52;;;;;;;0.57;0.57;;;4.40;99.90;;;;;;6165581;23;20403;-89
2021/12/02 06:07:19;;;;;;;0.80;0.80;;;4.40;99.90;;;;;;6165638;23;20868;-89
2021/12/02 06:09:46;;;;;;;1.13;0.90;;;4.40;99.90;;;;;;6167198;23;20414;-90
2021/12/02 06:12:13;;;;;;;1.20;1.10;;;4.40;99.90;;;;;;6168090;23;20389;-90
2021/12/02 06:14:39;;;;;;;1.10;1.10;;;4.40;99.90;;;;;;6168565;23;20602;-90
2021/12/02 06:17:05;;;;;;;1.50;1.30;;;4.50;99.90;;;;;;6167677;23;20407;-92
2021/12/02 06:19:31;;;;;;;1.60;1.43;;;4.50;99.90;;;;;;6168348;23;20852;-93
2021/12/02 06:22:19;;;;;;;3.90;1.30;;;4.40;99.90;;;;;;6168081;23;20407;-92
2021/12/02 06:24:48;;;;;;;1.53;1.43;;;4.50;99.90;;;;;;6164630;23;20161;-94
2021/12/02 06:27:17;;;;;;;2.90;2.70;;;4.50;99.90;;;;;;6165901;23;20485;-92
2021/12/02 06:29:42;;;;;;;2.37;2.17;;;4.50;99.90;;;;;;6165796;23;20419;-91
2021/12/02 06:32:08;;;;;;;0.93;0.93;;;4.50;99.90;;;;;;6165288;23;20394;-90
2021/12/02 06:34:35;;;;;;;0.90;0.90;;;4.60;99.90;;;;;;6165456;23;20213;-91
2021/12/02 06:37:01;;;;;;;1.53;0.80;;;4.40;99.90;;;;;;6166856;23;20442;-92
2021/12/02 06:39:27;;;;;;;1.10;1.00;;;4.40;99.90;;;;;;6164864;23;20407;-91
2021/12/02 06:41:52;;;;;;;2.27;1.10;;;4.40;99.90;;;;;;6165895;23;20497;-91
2021/12/02 06:44:18;;;;;;;6.03;0.80;;;4.30;99.90;;;;;;6165047;23;20278;-91
2021/12/02 06:46:44;;;;;;;1.27;1.00;;;4.30;99.90;;;;;;6164882;23;20554;-90
2021/12/02 06:49:11;;;;;;;0.97;0.97;;;4.30;99.90;;;;;;6165246;23;20705;-90
2021/12/02 06:51:39;;;;;;;3.87;1.33;;;4.40;99.90;;;;;;6141014;23;20253;-90
2021/12/02 06:54:05;;;;;;;4.30;1.33;;;4.30;99.90;;;;;;6164152;23;20435;-92
2021/12/02 06:56:31;;;;;;;1.50;1.10;;;4.30;99.90;;;;;;6169146;23;20914;-93
2021/12/02 06:59:00;;;;;;;1.50;0.83;;;4.20;99.90;;;;;;6167909;23;20529;-94
2021/12/02 07:01:28;;;;;;;3.03;1.10;;;4.20;99.90;;;;;;6167910;23;20399;-90
2021/12/02 07:04:02;;;;;;;1.03;0.90;;;4.20;99.90;;;;;;6205383;23;20393;-94
2021/12/02 07:06:38;;;;;;;0.50;0.50;;;4.10;99.90;;;;;;6178079;23;20557;-96
2021/12/02 07:09:04;;;;;;;0.87;0.87;;;4.10;99.90;;;;;;6175717;23;20413;-94
2021/12/02 07:11:31;;;;;;;2.00;0.80;;;4.10;99.90;;;;;;6171218;23;20393;-96
2021/12/02 07:14:12;;;;;;;0.87;0.87;;;4.10;99.90;;;;;;6173620;23;21481;-93
2021/12/02 07:16:38;;;;;;;1.47;1.30;;;4.00;99.90;;;;;;6177809;23;20392;-94
2021/12/02 07:19:06;;;;;;;1.00;0.90;;;3.70;99.90;;;;;;6168570;23;20458;-93
2021/12/02 07:21:42;;;;;;;;;;;;;;;;;;;;;
2021/12/02 07:24:24;;;;;;;2.33;1.00;;;3.90;99.90;;;;;;6198151;23;20390;-96
2021/12/02 07:27:02;;;;;;;0.70;0.70;;;3.90;99.90;;;;;;6174918;23;20399;-96
2021/12/02 07:29:33;;;;;;;1.10;1.00;;;3.80;99.90;;;;;;6173254;23;20673;-96
2021/12/02 07:32:10;;;;;;;0.80;0.80;;;3.70;99.90;;;;;;6182268;23;20403;-96
2021/12/02 07:35:00;;;;;;;1.03;0.93;;;3.70;99.90;;;;;;6171062;23;20529;-95
2021/12/02 07:37:27;;;;;;;2.10;1.60;;;3.70;99.90;;;;;;6172031;23;20388;-95
2021/12/02 07:40:07;;;;;;;2.03;1.60;;;3.70;99.90;;;;;;6172981;23;20395;-95
2021/12/02 07:42:36;;;;;;;4.83;2.20;;;3.70;99.90;;;;;;6174184;23;20409;-94
2021/12/02 07:45:07;;;;;;;5.23;2.90;;;3.80;99.90;;;;;;6173856;23;20423;-96
2021/12/02 07:47:46;;;;;;;3.27;2.10;;;3.90;99.90;;;;;;6174700;23;20451;-94
2021/12/02 07:50:15;;;;;;;2.90;2.10;;;4.00;99.90;;;;;;6167089;23;20771;-90
2021/12/02 07:52:47;;;;;;;3.23;2.30;;;4.10;99.90;;;;;;6185303;23;20402;-91
2021/12/02 07:55:15;;;;;;;3.63;2.40;;;4.20;99.90;;;;;;6166579;23;20445;-90
2021/12/02 07:57:43;;;;;;;2.97;2.70;;;4.30;99.90;;;;;;6168339;23;20395;-90
2021/12/02 08:00:10;;;;;;;2.93;2.67;;;4.30;99.90;;;;;;6169347;23;20403;-92
2021/12/02 08:02:38;;;;;;;6.83;3.00;;;4.30;99.90;;;;;;6167344;23;20422;-90
2021/12/02 08:05:03;;;;;;;2.13;1.83;;;4.30;99.90;;;;;;6168070;23;20406;-91
2021/12/02 08:07:51;;;;;;;1.87;1.77;;;4.30;99.90;;;;;;6167706;23;20414;-92
2021/12/02 08:10:21;;;;;;;2.30;1.90;;;4.20;99.90;;;;;;6168274;23;20449;-92
2021/12/02 08:12:48;;;;;;;2.13;2.03;;;4.20;99.90;;;;;;6145339;23;20404;-94
2021/12/02 08:15:21;;;;;;;3.00;1.80;;;4.30;99.90;;;;;;6170267;23;20780;-92
2021/12/02 08:17:47;;;;;;;1.87;1.63;;;4.30;99.90;;;;;;6168243;23;20399;-90
2021/12/02 08:20:14;;;;;;;2.63;1.70;;;4.30;99.90;;;;;;6167682;23;20484;-90
2021/12/02 08:22:40;;;;;;;1.63;1.47;;;4.30;99.90;;;;;;6167191;23;20521;-89
2021/12/02 08:25:06;;;;;;;1.33;1.23;;;4.40;99.90;;;;;;6165656;23;20487;-90
2021/12/02 08:27:32;;;;;;;1.40;1.20;;;4.40;99.90;;;;;;6168350;23;20279;-91
2021/12/02 08:30:18;;;;;;;1.73;1.20;;;4.50;99.90;;;;;;6165779;23;20855;-95
2021/12/02 08:33:14;;;;;;;1.40;1.30;;;4.50;99.90;;;;;;6167438;23;20211;-95
2021/12/02 08:36:40;;;;;;;;;;;;;;;;;;;;;
2021/12/02 08:39:23;;;;;;;1.27;1.17;;;4.70;99.90;;;;;;6185776;23;20392;-95
2021/12/02 08:41:50;;;;;;;1.40;1.30;;;4.90;99.90;;;;;;6170211;23;20397;-92
2021/12/02 08:44:57;;;;;;;1.10;1.00;;;5.20;99.90;;;;;;6170962;23;20696;-96
2021/12/02 08:47:43;;;;;;;;;;;;;;;;;;;;;
2021/12/02 08:50:18;;;;;;;2.57;1.40;;;5.20;99.90;;;;;;6166584;23;20407;-96
2021/12/02 08:52:48;;;;;;;1.40;1.30;;;5.30;99.90;;;;;;6172192;23;20406;-96
2021/12/02 08:55:15;;;;;;;1.90;1.30;;;5.60;99.90;;;;;;6184374;23;20778;-95
2021/12/02 08:57:44;;;;;;;1.50;1.40;;;5.80;99.90;;;;;;6176271;23;20399;-96
2021/12/02 09:00:20;;;;;;;1.17;1.17;;;6.00;99.90;;;;;;6182462;23;20904;-96
2021/12/02 09:02:46;;;;;;;1.47;1.37;;;6.40;99.90;;;;;;6177697;23;20482;-94
2021/12/02 09:05:12;;;;;;;1.90;1.53;;;6.60;99.90;;;;;;6172160;23;20441;-95
2021/12/02 09:07:37;;;;;;;1.87;1.40;;;6.60;99.90;;;;;;6173745;23;20406;-94
2021/12/02 09:10:05;;;;;;;1.70;1.60;;;6.50;99.90;;;;;;6171913;23;20229;-95
2021/12/02 09:12:31;;;;;;;1.57;1.20;;;6.80;99.90;;;;;;6170510;23;20513;-94
2021/12/02 09:15:02;;;;;;;1.37;1.27;;;7.00;99.90;;;;;;6170390;23;20542;-91
2021/12/02 09:17:36;;;;;;;1.50;1.40;;;6.80;99.90;;;;;;6171026;23;20169;-94
2021/12/02 09:20:04;;;;;;;1.23;1.00;;;6.50;99.90;;;;;;6170298;23;20504;-92
2021/12/02 09:22:56;;;;;;;1.17;0.90;;;6.70;99.90;;;;;;6169479;23;20403;-95
2021/12/02 09:26:17;;;;;;;1.30;1.20;;;6.50;99.90;;;;;;6161036;23;20410;-95
2021/12/02 09:28:52;;;;;;;1.33;1.23;;;6.50;99.90;;;;;;6164445;23;20402;-94
2021/12/02 09:31:19;;;;;;;1.40;1.30;;;6.60;99.90;;;;;;6171644;23;20406;-95
2021/12/02 09:34:04;;;;;;;1.57;0.90;;;6.30;99.90;;;;;;6170098;23;20398;-95
2021/12/02 09:36:32;;;;;;;1.63;1.13;;;5.90;99.90;;;;;;6197963;23;20486;-92
2021/12/02 09:39:00;;;;;;;2.10;1.20;;;6.00;99.90;;;;;;6170136;23;20401;-93
2021/12/02 09:41:26;;;;;;;1.40;1.30;;;6.00;99.90;;;;;;6170614;23;20431;-93
2021/12/02 09:43:52;;;;;;;2.77;1.33;;;6.00;99.90;;;;;;6170902;23;20396;-96
2021/12/02 09:47:07;;;;;;;1.30;1.20;;;6.00;99.90;;;;;;6171079;23;20413;-93
2021/12/02 09:50:31;;;;;;;;;;;;;;;;;;;;;
2021/12/02 09:53:19;;;;;;;0.97;0.97;;;5.80;99.90;;;;;;6197013;23;21230;-96
2021/12/02 09:55:52;;;;;;;1.10;1.03;;;5.80;99.90;;;;;;6174096;23;20474;-93
2021/12/02 09:58:27;;;;;;;1.40;1.07;;;5.70;99.90;;;;;;6172234;23;20386;-92
2021/12/02 10:01:06;;;;;;;1.50;1.10;;;5.50;99.90;;;;;;6175664;23;20433;-93
2021/12/02 10:04:16;;;;;;;3.70;1.23;;;5.60;99.90;;;;;;6172735;23;20379;-93
2021/12/02 10:06:45;;;;;;;1.40;0.90;;;5.70;99.90;;;;;;6195316;23;20389;-93
2021/12/02 10:09:17;;;;;;;1.50;1.10;;;5.70;99.90;;;;;;6169587;23;20452;-92
2021/12/02 10:11:55;;;;;;;2.20;1.17;;;5.70;99.90;;;;;;6167539;23;20425;-92
2021/12/02 10:14:37;;;;;;;1.10;1.10;;;5.70;99.90;;;;;;6168429;23;20522;-92
2021/12/02 10:17:20;;;;;;;1.27;1.17;;;5.70;99.90;;;;;;6165680;23;20744;-92
2021/12/02 10:20:27;;;;;;;4.40;1.57;;;5.60;99.90;;;;;;6168194;23;20413;-92
2021/12/02 10:23:22;;;;;;;1.30;1.20;;;5.60;99.90;;;;;;6194997;23;20498;-93
2021/12/02 10:25:59;;;;;;;;;;;;;;;;;;;;;
2021/12/02 10:28:30;;;;;;;1.40;1.40;;;5.70;99.90;;;;;;6197066;23;20383;-92
2021/12/02 10:31:09;;;;;;;1.60;1.13;;;5.70;99.90;;;;;;6170124;23;20400;-93
2021/12/02 10:33:46;;;;;;;1.20;0.90;;;5.80;99.90;;;;;;6168202;23;20395;-92
2021/12/02 10:36:58;;;;;;;3.07;0.90;;;5.70;99.90;;;;;;6183717;23;20446;-92
2021/12/02 10:39:40;;;;;;;2.93;1.30;;;5.60;99.90;;;;;;6136409;23;20399;-92
2021/12/02 10:42:08;;;;;;;0.87;0.80;;;5.50;99.90;;;;;;6169267;23;20437;-91
2021/12/02 10:44:36;;;;;;;1.27;1.00;;;5.30;99.90;;;;;;6169059;23;20758;-92
2021/12/02 10:47:16;;;;;;;1.20;1.10;;;5.00;99.90;;;;;;6169550;23;20408;-92
2021/12/02 10:50:15;;;;;;;0.47;0.43;;;4.60;99.90;;;;;;6145443;23;20420;-94
2021/12/02 10:52:41;;;;;;;0.40;0.40;;;3.80;99.90;;;;;;6104633;23;20493;-92
2021/12/02 10:55:13;;;;;;;1.43;0.47;;;3.50;99.90;;;;;;6170424;23;20565;-91
2021/12/02 10:57:55;;;;;;;0.57;0.57;;;3.30;99.90;;;;;;6169636;23;20479;-91
2021/12/02 11:00:26;;;;;;;1.10;0.97;;;3.20;99.90;;;;;;6169422;23;20394;-92
2021/12/02 11:02:58;;;;;;;1.00;0.87;;;3.30;99.90;;;;;;6175509;23;20831;-91
2021/12/02 11:05:32;;;;;;;2.70;0.97;;;3.40;99.90;;;;;;6170927;23;20576;-90
2021/12/02 11:08:08;;;;;;;0.70;0.70;;;3.40;99.90;;;;;;6171625;23;20725;-91
2021/12/02 11:11:16;;;;;;;;;;;;;;;;;;;;;
2021/12/02 11:13:49;;;;;;;1.40;1.10;;;3.60;99.90;;;;;;6196345;23;20384;-91
2021/12/02 11:16:33;;;;;;;0.83;0.80;;;3.70;99.90;;;;;;6169743;23;20802;-91
2021/12/02 11:19:31;;;;;;;0.53;0.53;;;3.80;99.90;;;;;;6172021;23;20440;-89
2021/12/02 11:22:17;;;;;;;0.70;0.70;;;3.90;99.90;;;;;;6170805;23;20418;-91
2021/12/02 11:24:47;;;;;;;0.53;0.53;;;4.00;99.90;;;;;;6197929;23;20461;-93
2021/12/02 11:27:21;;;;;;;0.60;0.50;;;3.80;99.90;;;;;;6148126;23;20578;-92
2021/12/02 11:30:12;;;;;;;0.73;0.50;;;3.70;99.90;;;;;;6175510;23;20397;-91
2021/12/02 11:32:46;;;;;;;0.77;0.77;;;3.70;99.90;;;;;;6168373;23;20402;-89
2021/12/02 11:35:27;;;;;;;1.37;0.87;;;3.70;99.90;;;;;;6190950;23;20386;-92
2021/12/02 11:38:09;;;;;;;0.87;0.80;;;3.80;99.90;;;;;;6170509;23;20413;-89
2021/12/02 11:41:00;;;;;;;1.10;1.00;;;3.80;99.90;;;;;;6170109;23;20398;-90
2021/12/02 11:43:30;;;;;;;1.13;1.10;;;3.80;99.90;;;;;;6163127;23;20971;-90
2021/12/02 11:45:58;;;;;;;1.50;1.30;;;3.80;99.90;;;;;;6144608;23;20751;-89
2021/12/02 11:48:41;;;;;;;4.30;4.00;;;3.70;99.90;;;;;;6167738;23;20694;-92
2021/12/02 11:51:15;;;;;;;1.63;1.53;;;3.80;99.90;;;;;;6167606;23;20987;-90
2021/12/02 11:53:42;;;;;;;3.10;0.87;;;3.80;99.90;;;;;;6143062;23;20878;-90
2021/12/02 11:56:12;;;;;;;0.70;0.70;;;3.80;99.90;;;;;;6169382;23;20414;-88
2021/12/02 11:58:40;;;;;;;0.70;0.50;;;3.70;99.90;;;;;;6198237;23;21136;-91
2021/12/02 12:01:08;;;;;;;1.00;1.00;;;3.70;99.90;;;;;;6196564;23;20868;-92
2021/12/02 12:03:46;;;;;;;0.70;0.70;;;3.70;99.90;;;;;;6169099;23;20386;-92
2021/12/02 12:06:34;;;;;;;0.70;0.70;;;3.70;99.90;;;;;;6169169;23;20418;-94
2021/12/02 12:09:09;;;;;;;1.13;0.60;;;3.70;99.90;;;;;;6171160;23;20407;-91
2021/12/02 12:11:35;;;;;;;0.50;0.50;;;3.70;99.90;;;;;;6169228;23;20397;-92
2021/12/02 12:14:05;;;;;;;2.27;1.17;;;3.80;99.90;;;;;;6169989;23;20497;-92
2021/12/02 12:16:32;;;;;;;0.67;0.60;;;3.90;99.90;;;;;;6169544;23;20451;-91
2021/12/02 12:19:27;;;;;;;2.20;1.03;;;4.00;99.90;;;;;;6165748;23;20916;-92
2021/12/02 12:22:03;;;;;;;1.13;0.87;;;3.90;99.90;;;;;;6168286;23;20493;-91
2021/12/02 12:24:39;;;;;;;2.57;2.37;;;4.00;99.90;;;;;;6164163;23;21067;-92
2021/12/02 12:27:12;;;;;;;1.17;1.17;;;4.00;99.90;;;;;;6171894;23;20409;-92
2021/12/02 12:29:40;;;;;;;1.57;1.40;;;4.00;99.90;;;;;;6167172;23;20397;-95
2021/12/02 12:32:42;;;;;;;1.53;0.93;;;4.00;99.90;;;;;;6194743;23;20394;-91
2021/12/02 12:35:04;;;;;;;0.90;0.77;;;4.10;99.90;;;;;;6187777;23;20396;-91
2021/12/02 12:40:15;;;;;;;1.60;1.40;;;4.20;99.90;;;;;;6197546;23;20395;-92
2021/12/02 12:42:43;;;;;;;1.87;1.23;;;4.20;99.90;;;;;;6167018;23;20453;-91
2021/12/02 12:45:15;;;;;;;1.17;1.07;;;4.20;99.90;;;;;;6167138;23;20450;-92
2021/12/02 12:48:01;;;;;;;1.50;0.97;;;4.30;99.90;;;;;;6169124;23;20405;-92
2021/12/02 12:50:37;;;;;;;1.60;1.13;;;4.30;99.90;;;;;;6169256;23;20417;-91
2021/12/02 12:53:03;;;;;;;1.30;1.20;;;4.20;99.90;;;;;;6169437;23;20402;-93
2021/12/02 12:55:36;;;;;;;1.23;1.00;;;4.20;99.90;;;;;;6170327;23;20891;-93
2021/12/02 12:58:17;;;;;;;1.93;1.40;;;4.20;99.90;;;;;;6180752;23;20457;-93
2021/12/02 13:00:52;;;;;;;1.43;1.30;;;4.20;99.90;;;;;;6175659;23;20408;-93
2021/12/02 13:06:10;;;;;;;0.80;0.80;;;4.20;99.90;;;;;;6198270;23;20462;-94
2021/12/02 13:08:49;;;;;;;1.50;1.40;;;4.30;99.90;;;;;;6195583;23;20388;-91
2021/12/02 13:11:31;;;;;;;1.50;1.40;;;4.20;99.90;;;;;;6168259;23;20447;-93
2021/12/02 13:13:58;;;;;;;0.90;0.90;;;4.30;99.90;;;;;;6145477;23;20878;-92
2021/12/02 13:16:24;;;;;;;1.37;0.87;;;4.30;99.90;;;;;;6200601;23;20391;-93
2021/12/02 13:18:55;;;;;;;1.10;1.10;;;4.30;99.90;;;;;;6172295;23;20391;-93
2021/12/02 13:21:30;;;;;;;1.43;1.17;;;4.40;99.90;;;;;;6179742;23;20651;-93
2021/12/02 13:24:16;;;;;;;2.30;1.10;;;4.40;99.90;;;;;;6171678;23;20415;-90
2021/12/02 13:26:45;;;;;;;2.60;1.67;;;4.50;99.90;;;;;;6170883;23;20407;-94
2021/12/02 13:29:17;;;;;;;1.67;1.20;;;4.30;99.90;;;;;;6169591;23;20433;-93
2021/12/02 13:32:05;;;;;;;1.47;1.37;;;4.40;99.90;;;;;;6168419;23;20423;-92
2021/12/02 13:34:32;;;;;;;1.70;1.60;;;4.30;99.90;;;;;;6168436;23;21122;-89
2021/12/02 13:37:04;;;;;;;1.67;1.40;;;4.40;99.90;;;;;;6170414;23;20763;-90
2021/12/02 13:39:44;;;;;;;1.87;1.57;;;4.20;99.90;;;;;;6172395;23;20398;-93
2021/12/02 13:42:15;;;;;;;3.00;2.10;;;4.20;99.90;;;;;;6170943;23;20407;-91
2021/12/02 13:44:48;;;;;;;2.27;2.07;;;4.30;99.90;;;;;;6170167;23;20533;-91
2021/12/02 13:47:20;;;;;;;2.30;1.70;;;4.30;99.90;;;;;;6172441;23;20478;-91
2021/12/02 13:49:55;;;;;;;2.30;2.20;;;4.20;99.90;;;;;;6170443;23;20403;-91
2021/12/02 13:55:16;;;;;;;1.57;1.47;;;4.10;99.90;;;;;;6195367;23;20851;-94
2021/12/02 13:58:16;;;;;;;;;;;;;;;;;;;;;
2021/12/02 14:00:46;;;;;;;1.93;1.73;;;3.70;99.90;;;;;;6195277;23;20399;-92
2021/12/02 14:03:17;;;;;;;2.50;2.10;;;3.60;99.90;;;;;;6169369;23;20424;-90
2021/12/02 14:05:46;;;;;;;1.90;1.80;;;3.50;99.90;;;;;;6170166;23;20446;-91